Sunday, November 19, 2017, 5:29 AM EST
Back to Local

KFIT, Fitchburg, Fitchburg Municipal Airport

Location: Leominster, MA, United States Lat: 42.552
Local Time: 5:29 AM EST (10:29 GMT) Lon: -71.756
Time Zone: US/Eastern Elev: 347 ft

Show me the last for .
Show Decoded

2017-11-19 04:52 METAR KFIT 190952Z AUTO 00000KT 3SM -RA BR OVC021 06/06 A2925 RMK AO2 SLP907
                 P0005 T00610061 =
2017-11-19 04:17 METAR KFIT 190917Z AUTO 00000KT 4SM -RA BR FEW004 BKN021 OVC027 06/05 A2926 RMK
                 AO2 P0004 T00560050 =
2017-11-19 04:06 METAR KFIT 190906Z AUTO 00000KT 2SM RA BR FEW004 BKN022 OVC034 06/05 A2927 RMK
                 AO2 P0004 T00560050 =
2017-11-19 03:52 METAR KFIT 190852Z AUTO 00000KT 4SM -RA BR FEW004 BKN020 OVC029 06/05 A2928 RMK
                 AO2 RAB10 SLP916 P0001 60001 T00560050 56047 =
2017-11-19 03:28 METAR KFIT 190828Z AUTO 00000KT 4SM -RA BR SCT004 OVC020 06/05 A2929 RMK AO2
                 RAB10 P0001 T00560050 =
2017-11-19 03:03 METAR KFIT 190803Z AUTO 00000KT 5SM BR BKN004 OVC020 06/04 A2931 RMK AO2 PRESFR
                 T00560044 =
2017-11-19 02:52 METAR KFIT 190752Z AUTO 00000KT 5SM BR OVC005 06/04 A2932 RMK AO2 RAE0653 SLP930
                 P0000 T00560044 =
2017-11-19 02:16 METAR KFIT 190716Z AUTO 00000KT 6SM BR BKN005 OVC017 05/04 A2935 RMK AO2 RAE0653
                 P0000 T00500044 =
2017-11-19 01:52 METAR KFIT 190652Z AUTO 00000KT 6SM -RA BR BKN007 OVC016 05/04 A2937 RMK AO2
                 RAE18B43 SLP947 P0000 T00500044 =
2017-11-19 01:41 METAR KFIT 190641Z AUTO 00000KT 6SM BR BKN007 BKN013 OVC018 05/04 A2938 RMK AO2
                 RAE18 CIG 006V010 P0000 T00500044 =
2017-11-19 01:33 METAR KFIT 190633Z AUTO 00000KT 6SM BR SCT009 OVC014 05/04 A2938 RMK AO2 RAE18
                 P0000 T00500044 =
2017-11-19 01:26 METAR KFIT 190626Z AUTO 00000KT 6SM BR BKN009 OVC014 05/04 A2939 RMK AO2 RAE18
                 CIG 006V012 PRESFR P0000 T00500039 =
2017-11-19 00:59 METAR KFIT 190559Z AUTO 00000KT 6SM -RA BR FEW007 OVC013 05/04 A2941 RMK AO2
                 P0000 T00500039 =
2017-11-19 00:52 METAR KFIT 190552Z AUTO 00000KT 6SM -RA BR OVC015 05/04 A2942 RMK AO2 SLP964
                 P0001 60008 T00500044 10061 20044 58041 =
2017-11-19 00:18 METAR KFIT 190518Z AUTO 00000KT 6SM -RA BR SCT004 BKN019 OVC090 04/04 A2943 RMK
                 AO2 PRESFR P0001 T00440039 =
2017-11-18 23:52 METAR KFIT 190452Z AUTO 00000KT 6SM -RA BR OVC004 05/04 A2946 RMK AO2 SLP979
                 P0001 T00500039 400781039 =
2017-11-18 23:42 METAR KFIT 190442Z AUTO 00000KT 7SM -RA BKN004 OVC008 05/04 A2947 RMK AO2 P0001
                 T00500039 =
2017-11-18 23:27 METAR KFIT 190427Z AUTO 00000KT 7SM -RA BKN008 BKN013 OVC018 05/04 A2949 RMK AO2
                 P0000 T00500039 =
2017-11-18 23:09 METAR KFIT 190409Z AUTO 00000KT 7SM -RA FEW009 OVC015 05/04 A2950 RMK AO2 P0000
                 T00500039 =
2017-11-18 23:00 METAR KFIT 190400Z AUTO 00000KT 8SM -RA OVC011 05/03 A2950 RMK AO2 P0000
                 T00500033 =
2017-11-18 22:52 METAR KFIT 190352Z AUTO 00000KT 7SM -RA BKN009 OVC015 05/03 A2950 RMK AO2 SLP993
                 P0001 T00500033 =
2017-11-18 22:34 METAR KFIT 190334Z AUTO 00000KT 6SM -RA BR OVC009 05/04 A2951 RMK AO2 P0001
                 T00500039 =
2017-11-18 21:52 METAR KFIT 190252Z AUTO 33003KT 6SM -RA BR BKN014 BKN021 OVC028 05/04 A2954 RMK
                 AO2 RAE09B30 SLP007 P0001 60005 T00500039 56024 =
2017-11-18 21:50 METAR KFIT 190250Z AUTO 32003KT 6SM -RA BR BKN014 BKN021 OVC028 05/04 A2954 RMK
                 AO2 RAE09B30 P0001 =
2017-11-18 21:18 METAR KFIT 190218Z AUTO 00000KT 8SM FEW017 BKN023 OVC032 05/04 A2956 RMK AO2
                 RAE09 P0000 T00500039 =
2017-11-18 20:52 METAR KFIT 190152Z AUTO 00000KT 8SM -RA BKN035 OVC042 05/04 A2958 RMK AO2 SLP020
                 P0003 T00500039 =
2017-11-18 20:34 METAR KFIT 190134Z AUTO 00000KT 5SM -RA BR FEW020 FEW025 OVC039 05/04 A2959 RMK
                 AO2 P0003 T00500039 =
2017-11-18 20:06 METAR KFIT 190106Z AUTO 00000KT 7SM -RA BKN025 OVC036 05/04 A2961 RMK AO2 P0000
                 T00500039 =
2017-11-18 19:52 METAR KFIT 190052Z AUTO 00000KT 7SM -RA SCT025 BKN035 OVC044 05/03 A2961 RMK AO2
                 RAB31 SLP032 P0001 T00500033 =
2017-11-18 18:52 METAR KFIT 182352Z AUTO 00000KT 10SM FEW023 SCT033 OVC050 06/02 A2965 RMK AO2
                 SLP045 60000 T00610017 10078 20061 57020 =
2017-11-18 17:52 METAR KFIT 182252Z AUTO 00000KT 10SM SCT029 BKN035 OVC060 06/01 A2968 RMK AO2
                 SLP053 T00610011 =
2017-11-18 16:52 METAR KFIT 182152Z AUTO 15004KT 10SM BKN060 OVC095 07/01 A2969 RMK AO2 RAB17E51
                 SLP059 P0000 T00670011 =
2017-11-18 15:52 METAR KFIT 182052Z AUTO 14006KT 10SM FEW029 OVC075 07/M01 A2971 RMK AO2 SLP066
                 T00721011 56029 =
2017-11-18 14:52 METAR KFIT 181952Z AUTO 13004KT 10SM OVC110 07/M03 A2973 RMK AO2 SLP071
                 T00721033 =
2017-11-18 13:52 METAR KFIT 181852Z AUTO 14005KT 10SM CLR 07/M06 A2977 RMK AO2 SLP084 T00721056 =
2017-11-18 12:52 METAR KFIT 181752Z AUTO 17004KT 10SM BKN110 07/M07 A2980 RMK AO2 SLP096
                 T00721072 10072 21033 58035 =
2017-11-18 11:52 METAR KFIT 181652Z AUTO VRB04KT 10SM CLR 07/M09 A2984 RMK AO2 SLP107 T00721094 =
2017-11-18 10:52 METAR KFIT 181552Z AUTO 18006KT 10SM CLR 06/M08 A2988 RMK AO2 SLP123 T00561078 =
2017-11-18 09:52 METAR KFIT 181452Z AUTO 16004KT 10SM CLR 03/M08 A2991 RMK AO2 SLP131 T00281078
                 58024 =
2017-11-18 08:52 METAR KFIT 181352Z AUTO 12003KT 10SM CLR 02/M07 A2994 RMK AO2 SLP141 T00171067 =
2017-11-18 07:52 METAR KFIT 181252Z AUTO 35003KT 10SM CLR 01/M07 A2995 RMK AO2 SLP147 T00111072 =
2017-11-18 06:52 METAR KFIT 181152Z AUTO 00000KT 10SM CLR M02/M08 A2998 RMK AO2 SLP156 T10221078
                 10000 21039 53006 =
2017-11-18 05:52 METAR KFIT 181052Z AUTO 34003KT 10SM CLR M02/M09 A2996 RMK AO2 SLP150 T10171089
                 =

Support USWX by starting your Amazon purchase here.